sensor_id;sensor_type;location;lat;lon;timestamp;P1;durP1;ratioP1;P2;durP2;ratioP2
6823;SDS011;58633;49.470;11.004;2023-06-22T00:00:19;11.20;;;6.18;;
6823;SDS011;58633;49.470;11.004;2023-06-22T00:02:45;7.88;;;5.88;;
6823;SDS011;58633;49.470;11.004;2023-06-22T00:05:10;8.48;;;6.00;;
6823;SDS011;58633;49.470;11.004;2023-06-22T00:07:36;7.25;;;6.18;;
6823;SDS011;58633;49.470;11.004;2023-06-22T00:10:02;10.10;;;5.90;;
6823;SDS011;58633;49.470;11.004;2023-06-22T00:12:27;10.73;;;6.68;;
6823;SDS011;58633;49.470;11.004;2023-06-22T00:14:53;8.07;;;6.88;;
6823;SDS011;58633;49.470;11.004;2023-06-22T00:17:18;9.52;;;6.53;;
6823;SDS011;58633;49.470;11.004;2023-06-22T00:19:46;8.50;;;6.22;;
6823;SDS011;58633;49.470;11.004;2023-06-22T00:22:12;7.20;;;6.30;;
6823;SDS011;58633;49.470;11.004;2023-06-22T00:24:37;8.02;;;6.43;;
6823;SDS011;58633;49.470;11.004;2023-06-22T00:27:03;10.15;;;5.88;;
6823;SDS011;58633;49.470;11.004;2023-06-22T00:29:30;8.00;;;6.20;;
6823;SDS011;58633;49.470;11.004;2023-06-22T00:31:55;7.47;;;5.82;;
6823;SDS011;58633;49.470;11.004;2023-06-22T00:34:21;8.80;;;6.47;;
6823;SDS011;58633;49.470;11.004;2023-06-22T00:36:47;6.95;;;6.13;;
6823;SDS011;58633;49.470;11.004;2023-06-22T00:39:12;8.05;;;5.75;;
6823;SDS011;58633;49.470;11.004;2023-06-22T00:41:38;9.30;;;6.38;;
6823;SDS011;58633;49.470;11.004;2023-06-22T00:44:04;8.93;;;6.03;;
6823;SDS011;58633;49.470;11.004;2023-06-22T00:46:29;7.75;;;5.95;;
6823;SDS011;58633;49.470;11.004;2023-06-22T00:48:55;8.63;;;6.15;;
6823;SDS011;58633;49.470;11.004;2023-06-22T00:51:22;9.77;;;6.00;;
6823;SDS011;58633;49.470;11.004;2023-06-22T00:53:49;7.88;;;5.68;;
6823;SDS011;58633;49.470;11.004;2023-06-22T00:56:16;9.05;;;6.38;;
6823;SDS011;58633;49.470;11.004;2023-06-22T00:58:44;7.43;;;5.93;;
6823;SDS011;58633;49.470;11.004;2023-06-22T01:01:12;10.45;;;6.15;;
6823;SDS011;58633;49.470;11.004;2023-06-22T01:03:39;6.55;;;5.85;;
6823;SDS011;58633;49.470;11.004;2023-06-22T01:06:09;9.57;;;6.50;;
6823;SDS011;58633;49.470;11.004;2023-06-22T01:08:48;7.78;;;6.45;;
6823;SDS011;58633;49.470;11.004;2023-06-22T01:11:29;8.63;;;6.75;;
6823;SDS011;58633;49.470;11.004;2023-06-22T01:16:34;8.30;;;6.72;;
6823;SDS011;58633;49.470;11.004;2023-06-22T01:19:05;8.50;;;6.47;;
6823;SDS011;58633;49.470;11.004;2023-06-22T01:21:44;7.40;;;6.20;;
6823;SDS011;58633;49.470;11.004;2023-06-22T01:27:09;8.05;;;5.90;;
6823;SDS011;58633;49.470;11.004;2023-06-22T01:29:48;7.65;;;6.25;;
6823;SDS011;58633;49.470;11.004;2023-06-22T01:32:17;9.88;;;7.00;;
6823;SDS011;58633;49.470;11.004;2023-06-22T01:34:44;9.05;;;6.95;;
6823;SDS011;58633;49.470;11.004;2023-06-22T01:37:10;8.85;;;6.80;;
6823;SDS011;58633;49.470;11.004;2023-06-22T01:39:36;10.55;;;6.53;;
6823;SDS011;58633;49.470;11.004;2023-06-22T01:42:02;9.23;;;6.40;;
6823;SDS011;58633;49.470;11.004;2023-06-22T01:44:28;8.20;;;6.50;;
6823;SDS011;58633;49.470;11.004;2023-06-22T01:46:54;9.75;;;6.32;;
6823;SDS011;58633;49.470;11.004;2023-06-22T01:49:20;6.78;;;6.10;;
6823;SDS011;58633;49.470;11.004;2023-06-22T01:51:46;8.23;;;6.28;;
6823;SDS011;58633;49.470;11.004;2023-06-22T01:54:12;7.25;;;6.20;;
6823;SDS011;58633;49.470;11.004;2023-06-22T01:56:37;8.80;;;6.03;;
6823;SDS011;58633;49.470;11.004;2023-06-22T02:02:01;10.50;;;6.40;;
6823;SDS011;58633;49.470;11.004;2023-06-22T02:04:33;8.00;;;6.40;;
6823;SDS011;58633;49.470;11.004;2023-06-22T02:07:03;8.73;;;6.68;;
6823;SDS011;58633;49.470;11.004;2023-06-22T02:09:32;7.95;;;5.97;;
6823;SDS011;58633;49.470;11.004;2023-06-22T02:12:02;8.93;;;6.35;;
6823;SDS011;58633;49.470;11.004;2023-06-22T02:14:29;9.00;;;6.70;;
6823;SDS011;58633;49.470;11.004;2023-06-22T02:16:55;11.13;;;7.40;;
6823;SDS011;58633;49.470;11.004;2023-06-22T02:19:24;9.82;;;6.47;;
6823;SDS011;58633;49.470;11.004;2023-06-22T02:21:50;9.93;;;6.78;;
6823;SDS011;58633;49.470;11.004;2023-06-22T02:24:16;10.48;;;6.78;;
6823;SDS011;58633;49.470;11.004;2023-06-22T02:26:42;8.85;;;6.60;;
6823;SDS011;58633;49.470;11.004;2023-06-22T02:29:10;8.15;;;7.35;;
6823;SDS011;58633;49.470;11.004;2023-06-22T02:31:35;9.52;;;6.65;;
6823;SDS011;58633;49.470;11.004;2023-06-22T02:34:01;8.35;;;6.80;;
6823;SDS011;58633;49.470;11.004;2023-06-22T02:36:27;7.63;;;6.35;;
6823;SDS011;58633;49.470;11.004;2023-06-22T02:38:55;7.88;;;6.35;;
6823;SDS011;58633;49.470;11.004;2023-06-22T02:41:25;11.38;;;7.43;;
6823;SDS011;58633;49.470;11.004;2023-06-22T02:43:51;7.32;;;6.25;;
6823;SDS011;58633;49.470;11.004;2023-06-22T02:46:17;8.73;;;6.57;;
6823;SDS011;58633;49.470;11.004;2023-06-22T02:48:43;8.38;;;6.28;;
6823;SDS011;58633;49.470;11.004;2023-06-22T02:51:08;10.40;;;6.15;;
6823;SDS011;58633;49.470;11.004;2023-06-22T02:53:34;7.43;;;6.00;;
6823;SDS011;58633;49.470;11.004;2023-06-22T02:56:03;9.35;;;6.30;;
6823;SDS011;58633;49.470;11.004;2023-06-22T02:58:30;8.57;;;6.28;;
6823;SDS011;58633;49.470;11.004;2023-06-22T03:00:58;8.05;;;6.78;;
6823;SDS011;58633;49.470;11.004;2023-06-22T03:03:29;9.63;;;7.22;;
6823;SDS011;58633;49.470;11.004;2023-06-22T03:05:55;10.70;;;7.15;;
6823;SDS011;58633;49.470;11.004;2023-06-22T03:08:21;11.20;;;8.05;;
6823;SDS011;58633;49.470;11.004;2023-06-22T03:10:46;11.40;;;7.90;;
6823;SDS011;58633;49.470;11.004;2023-06-22T03:13:12;10.38;;;7.88;;
6823;SDS011;58633;49.470;11.004;2023-06-22T03:15:38;10.77;;;8.00;;
6823;SDS011;58633;49.470;11.004;2023-06-22T03:18:03;12.38;;;8.27;;
6823;SDS011;58633;49.470;11.004;2023-06-22T03:20:30;10.88;;;7.57;;
6823;SDS011;58633;49.470;11.004;2023-06-22T03:22:58;11.35;;;8.23;;
6823;SDS011;58633;49.470;11.004;2023-06-22T03:25:24;10.15;;;7.65;;
6823;SDS011;58633;49.470;11.004;2023-06-22T03:27:49;10.70;;;7.22;;
6823;SDS011;58633;49.470;11.004;2023-06-22T03:30:15;10.65;;;7.78;;
6823;SDS011;58633;49.470;11.004;2023-06-22T03:32:41;9.60;;;8.20;;
6823;SDS011;58633;49.470;11.004;2023-06-22T03:35:07;13.57;;;8.98;;
6823;SDS011;58633;49.470;11.004;2023-06-22T03:37:33;12.63;;;9.13;;
6823;SDS011;58633;49.470;11.004;2023-06-22T03:39:59;16.33;;;11.73;;
6823;SDS011;58633;49.470;11.004;2023-06-22T03:42:25;13.23;;;9.20;;
6823;SDS011;58633;49.470;11.004;2023-06-22T03:44:51;17.42;;;11.27;;
6823;SDS011;58633;49.470;11.004;2023-06-22T03:47:16;13.27;;;9.48;;
6823;SDS011;58633;49.470;11.004;2023-06-22T03:49:42;17.67;;;12.10;;
6823;SDS011;58633;49.470;11.004;2023-06-22T03:52:08;20.40;;;13.75;;
6823;SDS011;58633;49.470;11.004;2023-06-22T03:54:34;11.98;;;9.57;;
6823;SDS011;58633;49.470;11.004;2023-06-22T03:57:00;11.32;;;9.02;;
6823;SDS011;58633;49.470;11.004;2023-06-22T03:59:25;17.63;;;11.02;;
6823;SDS011;58633;49.470;11.004;2023-06-22T04:01:51;12.13;;;9.38;;
6823;SDS011;58633;49.470;11.004;2023-06-22T04:04:18;10.35;;;8.35;;
6823;SDS011;58633;49.470;11.004;2023-06-22T04:06:43;11.15;;;8.50;;
6823;SDS011;58633;49.470;11.004;2023-06-22T04:09:09;13.40;;;8.15;;
6823;SDS011;58633;49.470;11.004;2023-06-22T04:11:35;11.38;;;8.68;;
6823;SDS011;58633;49.470;11.004;2023-06-22T04:14:00;14.05;;;7.82;;
6823;SDS011;58633;49.470;11.004;2023-06-22T04:16:26;12.32;;;7.60;;
6823;SDS011;58633;49.470;11.004;2023-06-22T04:18:51;10.73;;;7.93;;
6823;SDS011;58633;49.470;11.004;2023-06-22T04:21:17;8.30;;;7.45;;
6823;SDS011;58633;49.470;11.004;2023-06-22T04:23:44;10.43;;;7.20;;
6823;SDS011;58633;49.470;11.004;2023-06-22T04:26:11;9.90;;;7.50;;
6823;SDS011;58633;49.470;11.004;2023-06-22T04:28:37;11.02;;;7.50;;
6823;SDS011;58633;49.470;11.004;2023-06-22T04:31:02;15.98;;;7.63;;
6823;SDS011;58633;49.470;11.004;2023-06-22T04:33:29;8.77;;;7.20;;
6823;SDS011;58633;49.470;11.004;2023-06-22T04:35:55;13.57;;;7.43;;
6823;SDS011;58633;49.470;11.004;2023-06-22T04:38:26;9.13;;;6.95;;
6823;SDS011;58633;49.470;11.004;2023-06-22T04:40:51;12.20;;;6.70;;
6823;SDS011;58633;49.470;11.004;2023-06-22T04:43:18;9.52;;;7.22;;
6823;SDS011;58633;49.470;11.004;2023-06-22T04:45:44;7.57;;;6.47;;
6823;SDS011;58633;49.470;11.004;2023-06-22T04:48:09;7.63;;;6.57;;
6823;SDS011;58633;49.470;11.004;2023-06-22T04:50:40;8.70;;;6.65;;
6823;SDS011;58633;49.470;11.004;2023-06-22T04:53:06;7.93;;;6.38;;
6823;SDS011;58633;49.470;11.004;2023-06-22T04:55:32;9.35;;;6.88;;
6823;SDS011;58633;49.470;11.004;2023-06-22T04:57:58;10.18;;;7.30;;
6823;SDS011;58633;49.470;11.004;2023-06-22T05:00:29;8.52;;;6.93;;
6823;SDS011;58633;49.470;11.004;2023-06-22T05:02:55;7.82;;;6.30;;
6823;SDS011;58633;49.470;11.004;2023-06-22T05:05:22;8.68;;;6.57;;
6823;SDS011;58633;49.470;11.004;2023-06-22T05:07:50;9.70;;;6.78;;
6823;SDS011;58633;49.470;11.004;2023-06-22T05:10:18;8.98;;;6.43;;
6823;SDS011;58633;49.470;11.004;2023-06-22T05:12:43;11.27;;;6.43;;
6823;SDS011;58633;49.470;11.004;2023-06-22T05:15:09;12.07;;;6.65;;
6823;SDS011;58633;49.470;11.004;2023-06-22T05:17:36;8.30;;;6.70;;
6823;SDS011;58633;49.470;11.004;2023-06-22T05:20:02;13.75;;;6.85;;
6823;SDS011;58633;49.470;11.004;2023-06-22T05:22:31;8.77;;;6.43;;
6823;SDS011;58633;49.470;11.004;2023-06-22T05:24:56;9.15;;;6.60;;
6823;SDS011;58633;49.470;11.004;2023-06-22T05:27:22;10.60;;;6.35;;
6823;SDS011;58633;49.470;11.004;2023-06-22T05:29:47;8.95;;;6.70;;
6823;SDS011;58633;49.470;11.004;2023-06-22T05:32:13;10.40;;;7.28;;
6823;SDS011;58633;49.470;11.004;2023-06-22T05:34:38;10.90;;;6.40;;
6823;SDS011;58633;49.470;11.004;2023-06-22T05:37:05;8.65;;;6.65;;
6823;SDS011;58633;49.470;11.004;2023-06-22T05:39:31;8.13;;;6.68;;
6823;SDS011;58633;49.470;11.004;2023-06-22T05:41:56;9.07;;;7.00;;
6823;SDS011;58633;49.470;11.004;2023-06-22T05:44:22;9.77;;;7.50;;
6823;SDS011;58633;49.470;11.004;2023-06-22T05:46:47;10.13;;;7.30;;
6823;SDS011;58633;49.470;11.004;2023-06-22T05:49:13;11.68;;;7.50;;
6823;SDS011;58633;49.470;11.004;2023-06-22T05:51:39;8.23;;;6.85;;
6823;SDS011;58633;49.470;11.004;2023-06-22T05:54:05;10.38;;;7.30;;
6823;SDS011;58633;49.470;11.004;2023-06-22T05:56:31;7.63;;;6.72;;
6823;SDS011;58633;49.470;11.004;2023-06-22T05:58:56;8.65;;;6.75;;
6823;SDS011;58633;49.470;11.004;2023-06-22T06:01:22;8.63;;;6.50;;
6823;SDS011;58633;49.470;11.004;2023-06-22T06:03:47;8.82;;;6.93;;
6823;SDS011;58633;49.470;11.004;2023-06-22T06:06:14;9.07;;;6.95;;
6823;SDS011;58633;49.470;11.004;2023-06-22T06:08:40;9.63;;;6.70;;
6823;SDS011;58633;49.470;11.004;2023-06-22T06:11:06;10.27;;;7.43;;
6823;SDS011;58633;49.470;11.004;2023-06-22T06:13:31;7.68;;;6.88;;
6823;SDS011;58633;49.470;11.004;2023-06-22T06:15:57;9.15;;;7.15;;
6823;SDS011;58633;49.470;11.004;2023-06-22T06:18:24;11.55;;;7.88;;
6823;SDS011;58633;49.470;11.004;2023-06-22T06:20:49;9.52;;;6.75;;
6823;SDS011;58633;49.470;11.004;2023-06-22T06:23:15;8.80;;;6.57;;
6823;SDS011;58633;49.470;11.004;2023-06-22T06:25:41;11.10;;;7.30;;
6823;SDS011;58633;49.470;11.004;2023-06-22T06:28:06;9.43;;;7.22;;
6823;SDS011;58633;49.470;11.004;2023-06-22T06:30:32;10.93;;;7.28;;
6823;SDS011;58633;49.470;11.004;2023-06-22T06:32:57;7.78;;;6.72;;
6823;SDS011;58633;49.470;11.004;2023-06-22T06:35:23;10.07;;;7.15;;
6823;SDS011;58633;49.470;11.004;2023-06-22T06:37:49;9.32;;;7.15;;
6823;SDS011;58633;49.470;11.004;2023-06-22T06:40:16;9.85;;;7.05;;
6823;SDS011;58633;49.470;11.004;2023-06-22T06:42:43;8.77;;;6.55;;
6823;SDS011;58633;49.470;11.004;2023-06-22T06:45:11;8.27;;;6.50;;
6823;SDS011;58633;49.470;11.004;2023-06-22T06:47:38;10.30;;;6.55;;
6823;SDS011;58633;49.470;11.004;2023-06-22T06:50:04;10.40;;;6.82;;
6823;SDS011;58633;49.470;11.004;2023-06-22T06:52:31;9.20;;;6.30;;
6823;SDS011;58633;49.470;11.004;2023-06-22T06:54:57;8.68;;;7.00;;
6823;SDS011;58633;49.470;11.004;2023-06-22T06:57:23;9.15;;;6.43;;
6823;SDS011;58633;49.470;11.004;2023-06-22T06:59:49;8.50;;;6.43;;
6823;SDS011;58633;49.470;11.004;2023-06-22T07:02:15;9.27;;;6.60;;
6823;SDS011;58633;49.470;11.004;2023-06-22T07:04:41;7.68;;;6.35;;
6823;SDS011;58633;49.470;11.004;2023-06-22T07:07:06;7.80;;;6.35;;
6823;SDS011;58633;49.470;11.004;2023-06-22T07:09:32;6.97;;;6.28;;
6823;SDS011;58633;49.470;11.004;2023-06-22T07:11:58;8.35;;;6.57;;
6823;SDS011;58633;49.470;11.004;2023-06-22T07:14:23;9.95;;;6.25;;
6823;SDS011;58633;49.470;11.004;2023-06-22T07:16:49;7.95;;;6.53;;
6823;SDS011;58633;49.470;11.004;2023-06-22T07:19:14;10.90;;;6.10;;
6823;SDS011;58633;49.470;11.004;2023-06-22T07:21:40;11.98;;;7.10;;
6823;SDS011;58633;49.470;11.004;2023-06-22T07:24:06;14.13;;;7.13;;
6823;SDS011;58633;49.470;11.004;2023-06-22T07:26:32;14.77;;;6.22;;
6823;SDS011;58633;49.470;11.004;2023-06-22T07:28:58;7.30;;;6.32;;
6823;SDS011;58633;49.470;11.004;2023-06-22T07:31:26;13.75;;;6.57;;
6823;SDS011;58633;49.470;11.004;2023-06-22T07:33:52;9.38;;;6.53;;
6823;SDS011;58633;49.470;11.004;2023-06-22T07:36:17;10.38;;;7.47;;
6823;SDS011;58633;49.470;11.004;2023-06-22T07:38:43;10.73;;;6.63;;
6823;SDS011;58633;49.470;11.004;2023-06-22T07:41:09;9.45;;;6.05;;
6823;SDS011;58633;49.470;11.004;2023-06-22T07:43:34;9.00;;;5.90;;
6823;SDS011;58633;49.470;11.004;2023-06-22T07:46:02;6.88;;;6.15;;
6823;SDS011;58633;49.470;11.004;2023-06-22T07:48:28;8.90;;;6.60;;
6823;SDS011;58633;49.470;11.004;2023-06-22T07:50:54;8.93;;;5.50;;
6823;SDS011;58633;49.470;11.004;2023-06-22T07:53:20;8.25;;;5.80;;
6823;SDS011;58633;49.470;11.004;2023-06-22T07:55:46;8.20;;;5.90;;
6823;SDS011;58633;49.470;11.004;2023-06-22T07:58:12;7.40;;;5.55;;
6823;SDS011;58633;49.470;11.004;2023-06-22T08:00:38;6.40;;;5.70;;
6823;SDS011;58633;49.470;11.004;2023-06-22T08:03:03;10.48;;;5.55;;
6823;SDS011;58633;49.470;11.004;2023-06-22T08:05:30;5.93;;;5.32;;
6823;SDS011;58633;49.470;11.004;2023-06-22T08:07:56;6.85;;;5.30;;
6823;SDS011;58633;49.470;11.004;2023-06-22T08:10:22;7.15;;;5.03;;
6823;SDS011;58633;49.470;11.004;2023-06-22T08:12:47;6.78;;;5.10;;
6823;SDS011;58633;49.470;11.004;2023-06-22T08:15:13;8.25;;;5.07;;
6823;SDS011;58633;49.470;11.004;2023-06-22T08:17:39;6.70;;;4.43;;
6823;SDS011;58633;49.470;11.004;2023-06-22T08:20:05;4.82;;;4.30;;
6823;SDS011;58633;49.470;11.004;2023-06-22T08:22:35;7.57;;;4.20;;
6823;SDS011;58633;49.470;11.004;2023-06-22T08:25:01;4.68;;;4.10;;
6823;SDS011;58633;49.470;11.004;2023-06-22T08:27:28;8.43;;;4.22;;
6823;SDS011;58633;49.470;11.004;2023-06-22T08:29:56;7.25;;;5.07;;
6823;SDS011;58633;49.470;11.004;2023-06-22T08:32:23;8.65;;;4.18;;
6823;SDS011;58633;49.470;11.004;2023-06-22T08:34:51;7.05;;;4.13;;
6823;SDS011;58633;49.470;11.004;2023-06-22T08:37:17;6.03;;;4.47;;
6823;SDS011;58633;49.470;11.004;2023-06-22T08:39:43;6.55;;;4.40;;
6823;SDS011;58633;49.470;11.004;2023-06-22T08:42:08;5.60;;;4.10;;
6823;SDS011;58633;49.470;11.004;2023-06-22T08:44:34;5.03;;;4.18;;
6823;SDS011;58633;49.470;11.004;2023-06-22T08:46:59;6.90;;;4.00;;
6823;SDS011;58633;49.470;11.004;2023-06-22T08:49:25;6.03;;;4.03;;
6823;SDS011;58633;49.470;11.004;2023-06-22T08:51:50;7.07;;;3.88;;
6823;SDS011;58633;49.470;11.004;2023-06-22T08:54:18;5.07;;;4.20;;
6823;SDS011;58633;49.470;11.004;2023-06-22T08:56:43;6.22;;;4.43;;
6823;SDS011;58633;49.470;11.004;2023-06-22T08:59:09;5.63;;;4.18;;
6823;SDS011;58633;49.470;11.004;2023-06-22T09:01:34;8.13;;;4.00;;
6823;SDS011;58633;49.470;11.004;2023-06-22T09:04:00;8.82;;;4.20;;
6823;SDS011;58633;49.470;11.004;2023-06-22T09:06:25;6.40;;;4.13;;
6823;SDS011;58633;49.470;11.004;2023-06-22T09:08:51;8.55;;;4.20;;
6823;SDS011;58633;49.470;11.004;2023-06-22T09:11:17;6.97;;;4.30;;
6823;SDS011;58633;49.470;11.004;2023-06-22T09:13:42;5.68;;;4.18;;
6823;SDS011;58633;49.470;11.004;2023-06-22T09:16:08;5.93;;;3.70;;
6823;SDS011;58633;49.470;11.004;2023-06-22T09:18:34;8.30;;;4.80;;
6823;SDS011;58633;49.470;11.004;2023-06-22T09:21:01;6.68;;;4.30;;
6823;SDS011;58633;49.470;11.004;2023-06-22T09:23:26;7.70;;;4.55;;
6823;SDS011;58633;49.470;11.004;2023-06-22T09:25:52;7.82;;;3.88;;
6823;SDS011;58633;49.470;11.004;2023-06-22T09:28:17;8.23;;;4.20;;
6823;SDS011;58633;49.470;11.004;2023-06-22T09:30:43;7.35;;;4.15;;
6823;SDS011;58633;49.470;11.004;2023-06-22T09:33:09;6.03;;;4.15;;
6823;SDS011;58633;49.470;11.004;2023-06-22T09:35:35;5.97;;;4.15;;
6823;SDS011;58633;49.470;11.004;2023-06-22T09:38:00;8.77;;;4.38;;
6823;SDS011;58633;49.470;11.004;2023-06-22T09:40:26;5.90;;;3.90;;
6823;SDS011;58633;49.470;11.004;2023-06-22T09:42:51;9.63;;;4.53;;
6823;SDS011;58633;49.470;11.004;2023-06-22T09:45:17;6.03;;;3.90;;
6823;SDS011;58633;49.470;11.004;2023-06-22T09:47:42;7.85;;;4.35;;
6823;SDS011;58633;49.470;11.004;2023-06-22T09:50:08;6.95;;;4.05;;
6823;SDS011;58633;49.470;11.004;2023-06-22T09:52:34;9.93;;;4.13;;
6823;SDS011;58633;49.470;11.004;2023-06-22T09:54:59;7.03;;;4.32;;
6823;SDS011;58633;49.470;11.004;2023-06-22T09:57:25;9.45;;;4.35;;
6823;SDS011;58633;49.470;11.004;2023-06-22T09:59:51;7.90;;;4.53;;
6823;SDS011;58633;49.470;11.004;2023-06-22T10:02:16;8.98;;;4.38;;
6823;SDS011;58633;49.470;11.004;2023-06-22T10:04:42;9.15;;;4.32;;
6823;SDS011;58633;49.470;11.004;2023-06-22T10:07:07;6.45;;;4.35;;
6823;SDS011;58633;49.470;11.004;2023-06-22T10:09:33;6.93;;;4.40;;
6823;SDS011;58633;49.470;11.004;2023-06-22T10:11:59;7.30;;;4.07;;
6823;SDS011;58633;49.470;11.004;2023-06-22T10:14:24;9.00;;;4.55;;
6823;SDS011;58633;49.470;11.004;2023-06-22T10:16:51;7.28;;;4.13;;
6823;SDS011;58633;49.470;11.004;2023-06-22T10:19:17;5.97;;;3.97;;
6823;SDS011;58633;49.470;11.004;2023-06-22T10:21:42;7.13;;;4.80;;
6823;SDS011;58633;49.470;11.004;2023-06-22T10:24:08;9.40;;;4.13;;
6823;SDS011;58633;49.470;11.004;2023-06-22T10:26:34;7.43;;;4.10;;
6823;SDS011;58633;49.470;11.004;2023-06-22T10:29:01;10.23;;;4.72;;
6823;SDS011;58633;49.470;11.004;2023-06-22T10:31:28;7.78;;;4.30;;
6823;SDS011;58633;49.470;11.004;2023-06-22T10:33:54;10.93;;;4.38;;
6823;SDS011;58633;49.470;11.004;2023-06-22T10:36:20;7.43;;;4.57;;
6823;SDS011;58633;49.470;11.004;2023-06-22T10:38:46;6.63;;;4.38;;
6823;SDS011;58633;49.470;11.004;2023-06-22T10:41:13;7.55;;;4.47;;
6823;SDS011;58633;49.470;11.004;2023-06-22T10:43:39;7.25;;;4.28;;
6823;SDS011;58633;49.470;11.004;2023-06-22T10:46:04;7.72;;;4.20;;
6823;SDS011;58633;49.470;11.004;2023-06-22T10:48:30;5.50;;;4.40;;
6823;SDS011;58633;49.470;11.004;2023-06-22T10:50:55;6.47;;;4.20;;
6823;SDS011;58633;49.470;11.004;2023-06-22T10:53:21;10.77;;;4.32;;
6823;SDS011;58633;49.470;11.004;2023-06-22T10:55:46;18.25;;;4.35;;
6823;SDS011;58633;49.470;11.004;2023-06-22T10:58:12;9.18;;;4.15;;
6823;SDS011;58633;49.470;11.004;2023-06-22T11:00:38;9.52;;;4.05;;
6823;SDS011;58633;49.470;11.004;2023-06-22T11:03:03;10.15;;;4.57;;
6823;SDS011;58633;49.470;11.004;2023-06-22T11:05:29;6.88;;;4.53;;
6823;SDS011;58633;49.470;11.004;2023-06-22T11:07:54;6.13;;;4.53;;
6823;SDS011;58633;49.470;11.004;2023-06-22T11:10:20;6.15;;;4.15;;
6823;SDS011;58633;49.470;11.004;2023-06-22T11:12:46;9.48;;;4.50;;
6823;SDS011;58633;49.470;11.004;2023-06-22T11:15:11;10.30;;;4.60;;
6823;SDS011;58633;49.470;11.004;2023-06-22T11:17:37;7.85;;;4.53;;
6823;SDS011;58633;49.470;11.004;2023-06-22T11:20:02;12.30;;;5.00;;
6823;SDS011;58633;49.470;11.004;2023-06-22T11:22:35;8.70;;;4.68;;
6823;SDS011;58633;49.470;11.004;2023-06-22T11:25:04;9.02;;;4.63;;
6823;SDS011;58633;49.470;11.004;2023-06-22T11:27:31;8.95;;;4.47;;
6823;SDS011;58633;49.470;11.004;2023-06-22T11:29:56;8.65;;;4.07;;
6823;SDS011;58633;49.470;11.004;2023-06-22T11:32:22;7.10;;;4.30;;
6823;SDS011;58633;49.470;11.004;2023-06-22T11:34:48;7.70;;;4.30;;
6823;SDS011;58633;49.470;11.004;2023-06-22T11:37:14;7.80;;;4.68;;
6823;SDS011;58633;49.470;11.004;2023-06-22T11:39:40;7.50;;;4.55;;
6823;SDS011;58633;49.470;11.004;2023-06-22T11:42:06;11.30;;;4.45;;
6823;SDS011;58633;49.470;11.004;2023-06-22T11:44:31;11.68;;;4.80;;
6823;SDS011;58633;49.470;11.004;2023-06-22T11:46:57;11.85;;;4.22;;
6823;SDS011;58633;49.470;11.004;2023-06-22T11:49:22;8.45;;;4.32;;
6823;SDS011;58633;49.470;11.004;2023-06-22T11:51:48;9.75;;;4.60;;
6823;SDS011;58633;49.470;11.004;2023-06-22T11:54:13;7.50;;;4.57;;
6823;SDS011;58633;49.470;11.004;2023-06-22T11:56:39;8.50;;;5.18;;
6823;SDS011;58633;49.470;11.004;2023-06-22T11:59:04;7.53;;;4.55;;
6823;SDS011;58633;49.470;11.004;2023-06-22T12:01:30;9.70;;;4.60;;
6823;SDS011;58633;49.470;11.004;2023-06-22T12:03:58;9.88;;;4.57;;
6823;SDS011;58633;49.470;11.004;2023-06-22T12:06:23;8.55;;;4.32;;
6823;SDS011;58633;49.470;11.004;2023-06-22T12:08:49;9.50;;;4.45;;
6823;SDS011;58633;49.470;11.004;2023-06-22T12:11:14;7.25;;;4.07;;
6823;SDS011;58633;49.470;11.004;2023-06-22T12:13:40;11.02;;;4.47;;
6823;SDS011;58633;49.470;11.004;2023-06-22T12:16:05;7.05;;;4.72;;
6823;SDS011;58633;49.470;11.004;2023-06-22T12:18:31;10.77;;;4.28;;
6823;SDS011;58633;49.470;11.004;2023-06-22T12:20:57;8.95;;;4.20;;
6823;SDS011;58633;49.470;11.004;2023-06-22T12:23:22;8.55;;;4.35;;
6823;SDS011;58633;49.470;11.004;2023-06-22T12:25:48;6.97;;;4.20;;
6823;SDS011;58633;49.470;11.004;2023-06-22T12:28:13;8.82;;;4.35;;
6823;SDS011;58633;49.470;11.004;2023-06-22T12:30:39;9.88;;;4.50;;
6823;SDS011;58633;49.470;11.004;2023-06-22T12:33:05;7.03;;;4.25;;
6823;SDS011;58633;49.470;11.004;2023-06-22T12:35:30;7.80;;;4.32;;
6823;SDS011;58633;49.470;11.004;2023-06-22T12:37:56;7.72;;;4.18;;
6823;SDS011;58633;49.470;11.004;2023-06-22T12:40:21;6.75;;;4.03;;
6823;SDS011;58633;49.470;11.004;2023-06-22T12:42:47;8.93;;;4.53;;
6823;SDS011;58633;49.470;11.004;2023-06-22T12:45:13;7.63;;;4.00;;
6823;SDS011;58633;49.470;11.004;2023-06-22T12:47:38;9.55;;;4.45;;
6823;SDS011;58633;49.470;11.004;2023-06-22T12:50:04;7.78;;;4.13;;
6823;SDS011;58633;49.470;11.004;2023-06-22T12:52:30;7.20;;;4.22;;
6823;SDS011;58633;49.470;11.004;2023-06-22T12:54:58;11.15;;;4.57;;
6823;SDS011;58633;49.470;11.004;2023-06-22T12:57:24;10.90;;;4.65;;
6823;SDS011;58633;49.470;11.004;2023-06-22T12:59:50;6.65;;;4.20;;
6823;SDS011;58633;49.470;11.004;2023-06-22T13:02:16;8.70;;;4.35;;
6823;SDS011;58633;49.470;11.004;2023-06-22T13:04:41;10.60;;;4.20;;
6823;SDS011;58633;49.470;11.004;2023-06-22T13:07:08;10.38;;;4.43;;
6823;SDS011;58633;49.470;11.004;2023-06-22T13:09:33;11.27;;;4.63;;
6823;SDS011;58633;49.470;11.004;2023-06-22T13:12:00;8.90;;;4.40;;
6823;SDS011;58633;49.470;11.004;2023-06-22T13:14:26;7.38;;;4.38;;
6823;SDS011;58633;49.470;11.004;2023-06-22T13:16:51;9.48;;;4.80;;
6823;SDS011;58633;49.470;11.004;2023-06-22T13:19:17;6.75;;;4.20;;
6823;SDS011;58633;49.470;11.004;2023-06-22T13:21:43;9.25;;;4.57;;
6823;SDS011;58633;49.470;11.004;2023-06-22T13:24:08;6.18;;;4.63;;
6823;SDS011;58633;49.470;11.004;2023-06-22T13:26:34;9.82;;;4.60;;
6823;SDS011;58633;49.470;11.004;2023-06-22T13:28:59;10.55;;;4.35;;
6823;SDS011;58633;49.470;11.004;2023-06-22T13:31:25;7.30;;;4.30;;
6823;SDS011;58633;49.470;11.004;2023-06-22T13:33:50;8.40;;;4.70;;
6823;SDS011;58633;49.470;11.004;2023-06-22T13:36:17;8.93;;;4.43;;
6823;SDS011;58633;49.470;11.004;2023-06-22T13:38:43;8.38;;;4.60;;
6823;SDS011;58633;49.470;11.004;2023-06-22T13:41:08;9.13;;;4.50;;
6823;SDS011;58633;49.470;11.004;2023-06-22T13:43:34;10.20;;;4.50;;
6823;SDS011;58633;49.470;11.004;2023-06-22T13:45:59;9.77;;;4.60;;
6823;SDS011;58633;49.470;11.004;2023-06-22T13:48:25;10.68;;;4.55;;
6823;SDS011;58633;49.470;11.004;2023-06-22T13:50:51;7.43;;;4.22;;
6823;SDS011;58633;49.470;11.004;2023-06-22T13:53:17;12.05;;;4.60;;
6823;SDS011;58633;49.470;11.004;2023-06-22T13:55:42;8.73;;;4.00;;
6823;SDS011;58633;49.470;11.004;2023-06-22T13:58:08;10.65;;;4.55;;
6823;SDS011;58633;49.470;11.004;2023-06-22T14:00:33;9.45;;;4.25;;
6823;SDS011;58633;49.470;11.004;2023-06-22T14:02:59;8.80;;;3.90;;
6823;SDS011;58633;49.470;11.004;2023-06-22T14:05:24;9.88;;;4.10;;
6823;SDS011;58633;49.470;11.004;2023-06-22T14:07:50;9.93;;;3.95;;
6823;SDS011;58633;49.470;11.004;2023-06-22T14:10:15;8.73;;;4.20;;
6823;SDS011;58633;49.470;11.004;2023-06-22T14:12:41;10.25;;;3.90;;
6823;SDS011;58633;49.470;11.004;2023-06-22T14:15:07;7.78;;;4.03;;
6823;SDS011;58633;49.470;11.004;2023-06-22T14:17:33;8.32;;;4.32;;
6823;SDS011;58633;49.470;11.004;2023-06-22T14:19:58;9.93;;;4.38;;
6823;SDS011;58633;49.470;11.004;2023-06-22T14:22:24;11.70;;;4.35;;
6823;SDS011;58633;49.470;11.004;2023-06-22T14:24:49;10.52;;;3.97;;
6823;SDS011;58633;49.470;11.004;2023-06-22T14:27:15;11.10;;;3.95;;
6823;SDS011;58633;49.470;11.004;2023-06-22T14:29:41;11.45;;;3.88;;
6823;SDS011;58633;49.470;11.004;2023-06-22T14:32:07;8.68;;;4.60;;
6823;SDS011;58633;49.470;11.004;2023-06-22T14:34:33;14.52;;;4.40;;
6823;SDS011;58633;49.470;11.004;2023-06-22T14:37:01;13.18;;;4.35;;
6823;SDS011;58633;49.470;11.004;2023-06-22T14:39:27;13.35;;;5.05;;
6823;SDS011;58633;49.470;11.004;2023-06-22T14:41:52;11.57;;;4.55;;
6823;SDS011;58633;49.470;11.004;2023-06-22T14:44:18;11.95;;;4.45;;